Time;durP1;ratioP1;P1;durP2;ratioP2;P2;SDS_P1;SDS_P2;PMS_P1;PMS_P2;Temp;Humidity;BMP_temperature;BMP_pressure;BME280_temperature;BME280_humidity;BME280_pressure;Samples;Min_cycle;Max_cycle;Signal;HPM_P1;HPM_P2
2022/08/20 00:00:25;;;;;;;13.10;11.83;;;;;;;26.28;42.99;94712.16;6112880;28;104112;-57
2022/08/20 00:03:31;;;;;;;11.20;10.23;;;;;;;26.24;43.82;94712.06;6088274;28;103895;-57
2022/08/20 00:06:34;;;;;;;11.30;10.50;;;;;;;26.26;43.60;94717.09;6111619;28;103414;-57
2022/08/20 00:09:37;;;;;;;9.20;8.60;;;;;;;26.20;43.37;94727.25;6110610;28;104173;-57
2022/08/20 00:12:46;;;;;;;13.70;12.53;;;;;;;26.30;43.71;94727.91;6112990;28;103514;-57
2022/08/20 00:15:49;;;;;;;15.87;10.93;;;;;;;26.32;43.79;94725.66;6102453;28;103221;-55
2022/08/20 00:18:52;;;;;;;11.10;10.30;;;;;;;26.32;43.37;94722.97;6111866;28;103557;-56
2022/08/20 00:21:56;;;;;;;11.73;10.63;;;;;;;26.25;43.89;94718.97;6112704;28;103218;-56
2022/08/20 00:25:00;;;;;;;13.87;12.77;;;;;;;26.24;43.90;94717.44;6112105;28;103210;-56
2022/08/20 00:28:06;;;;;;;10.80;9.87;;;;;;;26.28;43.55;94717.53;6102952;28;103414;-57
2022/08/20 00:31:12;;;;;;;11.57;10.70;;;;;;;26.39;43.53;94721.28;6108731;28;103291;-56
2022/08/20 00:34:15;;;;;;;11.87;10.97;;;;;;;26.45;42.89;94717.22;6113228;28;103254;-56
2022/08/20 00:37:18;;;;;;;11.80;10.70;;;;;;;26.43;43.70;94718.69;6106037;28;103161;-55
2022/08/20 00:40:25;;;;;;;12.57;11.60;;;;;;;26.45;43.17;94713.78;6105445;28;104200;-56
2022/08/20 00:43:35;;;;;;;12.30;11.10;;;;;;;26.44;43.74;94712.22;6112112;28;104038;-55
2022/08/20 00:46:41;;;;;;;13.73;12.50;;;;;;;26.38;43.72;94716.25;6097421;28;103333;-56
2022/08/20 00:49:44;;;;;;;12.23;11.33;;;;;;;26.49;43.01;94720.00;6102572;28;103133;-56
2022/08/20 00:52:50;;;;;;;12.83;11.77;;;;;;;26.48;43.33;94707.72;6109948;28;103680;-56
2022/08/20 00:55:54;;;;;;;11.77;10.57;;;;;;;26.42;43.52;94712.56;6112449;28;102916;-56
2022/08/20 00:58:59;;;;;;;11.90;11.00;;;;;;;26.39;44.21;94707.88;6112097;28;104472;-56
2022/08/20 01:02:04;;;;;;;10.90;10.00;;;;;;;26.33;44.30;94706.53;6101707;28;104851;-56
2022/08/20 01:05:09;;;;;;;10.63;9.67;;;;;;;26.28;44.06;94702.19;6110624;28;103278;-56
2022/08/20 01:08:15;;;;;;;12.80;11.70;;;;;;;26.36;44.14;94700.47;6112356;28;103373;-56
2022/08/20 01:11:21;;;;;;;11.83;10.93;;;;;;;26.27;44.87;94697.19;6105451;28;103334;-56
2022/08/20 01:14:30;;;;;;;11.77;10.83;;;;;;;26.27;43.96;94700.63;6105668;28;103042;-57
2022/08/20 01:17:40;;;;;;;12.30;11.40;;;;;;;26.31;44.26;94694.59;6109208;28;103017;-56
2022/08/20 01:20:49;;;;;;;11.80;10.33;;;;;;;26.19;44.30;94688.13;6112504;28;104222;-57
2022/08/20 01:24:02;;;;;;;9.17;8.47;;;;;;;26.14;44.46;94682.25;6102717;28;104550;-58
2022/08/20 01:27:08;;;;;;;10.30;9.40;;;;;;;26.18;43.78;94680.44;6111519;28;103144;-57
2022/08/20 01:30:12;;;;;;;10.43;9.53;;;;;;;26.21;44.05;94685.13;6110550;28;103989;-57
2022/08/20 01:33:16;;;;;;;11.53;10.50;;;;;;;26.33;44.03;94681.63;6112484;28;104261;-57
2022/08/20 01:36:25;;;;;;;10.17;9.30;;;;;;;26.28;43.73;94688.78;6098493;28;103020;-57
2022/08/20 01:39:31;;;;;;;10.63;9.70;;;;;;;26.31;43.64;94683.84;6111893;28;103231;-57
2022/08/20 01:42:41;;;;;;;9.90;9.13;;;;;;;26.27;43.59;94683.75;6110297;28;103121;-57
2022/08/20 01:46:01;;;;;;;11.10;10.30;;;;;;;26.30;43.97;94680.41;6100603;28;104075;-58
2022/08/20 01:49:11;;;;;;;10.77;9.97;;;;;;;26.34;43.78;94675.13;6111718;28;103352;-58
2022/08/20 01:52:37;;;;;;;10.13;9.03;;;;;;;26.31;44.16;94681.94;6110121;28;103034;-57
2022/08/20 01:55:40;;;;;;;10.17;9.27;;;;;;;26.38;43.87;94670.63;6111338;28;103274;-58
2022/08/20 01:58:49;;;;;;;9.47;8.67;;;;;;;26.27;44.05;94665.00;6100429;28;105599;-57
2022/08/20 02:02:01;;;;;;;11.17;9.50;;;;;;;26.20;44.99;94662.09;6111216;28;103141;-57
2022/08/20 02:05:05;;;;;;;9.87;8.97;;;;;;;26.15;44.41;94644.34;6108914;28;103405;-58
2022/08/20 02:08:08;;;;;;;10.40;9.47;;;;;;;26.17;44.41;94652.06;6104656;28;103294;-58
2022/08/20 02:11:11;;;;;;;9.80;9.00;;;;;;;26.28;44.49;94658.50;6106358;28;103353;-58
2022/08/20 02:14:16;;;;;;;11.70;9.70;;;;;;;26.38;44.17;94654.53;6109806;28;104226;-57
2022/08/20 02:17:21;;;;;;;13.70;12.40;;;;;;;26.43;43.70;94656.97;6109906;28;104200;-57
2022/08/20 02:20:30;;;;;;;10.27;9.37;;;;;;;26.35;44.35;94658.69;6101292;28;103236;-58
2022/08/20 02:23:34;;;;;;;9.83;8.90;;;;;;;26.39;44.36;94658.81;6110809;28;103218;-58
2022/08/20 02:26:38;;;;;;;9.37;8.67;;;;;;;26.37;44.25;94652.97;6111797;28;104308;-57
2022/08/20 02:29:43;;;;;;;11.03;9.07;;;;;;;26.26;44.51;94666.88;6108038;28;104463;-57
2022/08/20 02:32:47;;;;;;;8.57;7.97;;;;;;;26.10;44.90;94658.00;6099328;28;103364;-58
2022/08/20 02:35:50;;;;;;;9.30;8.50;;;;;;;25.97;45.36;94653.78;6105206;28;103251;-58
2022/08/20 02:38:53;;;;;;;9.33;8.53;;;;;;;26.07;44.93;94645.28;6110414;28;103198;-59
2022/08/20 02:41:57;;;;;;;8.93;8.23;;;;;;;25.96;45.04;94649.53;6105529;28;103198;-57
2022/08/20 02:45:04;;;;;;;9.60;8.77;;;;;;;25.99;45.26;94651.53;6103065;28;104519;-58
2022/08/20 02:48:08;;;;;;;11.30;8.30;;;;;;;26.01;45.02;94657.34;6110484;28;103246;-58
2022/08/20 02:51:11;;;;;;;10.33;9.60;;;;;;;26.18;44.85;94656.28;6110720;28;103413;-58
2022/08/20 02:54:14;;;;;;;11.13;10.33;;;;;;;26.24;44.57;94657.63;6098772;28;104252;-58
2022/08/20 02:57:20;;;;;;;10.70;9.80;;;;;;;26.13;44.90;94656.53;6109724;28;104243;-57
2022/08/20 03:00:24;;;;;;;10.07;9.07;;;;;;;26.03;45.24;94671.19;6109888;28;103309;-58
2022/08/20 03:03:28;;;;;;;9.00;8.40;;;;;;;25.94;45.48;94665.19;6110137;28;103242;-58
2022/08/20 03:06:31;;;;;;;9.43;8.63;;;;;;;25.99;44.99;94664.94;6096727;28;103519;-58
2022/08/20 03:09:34;;;;;;;10.10;9.10;;;;;;;25.92;45.55;94664.75;6109473;28;103268;-57
2022/08/20 03:12:37;;;;;;;10.07;9.10;;;;;;;25.98;45.38;94669.50;6107238;28;104436;-58
2022/08/20 03:15:46;;;;;;;11.70;10.67;;;;;;;26.11;45.23;94675.66;6102324;28;104063;-57
2022/08/20 03:18:49;;;;;;;13.97;12.97;;;;;;;26.20;45.09;94672.81;6104855;28;103403;-58
2022/08/20 03:21:54;;;;;;;12.70;11.63;;;;;;;26.26;44.75;94666.09;6109646;28;103502;-58
2022/08/20 03:24:57;;;;;;;10.60;9.57;;;;;;;26.14;45.23;94674.97;6113862;28;104359;-59
2022/08/20 03:28:00;;;;;;;10.83;10.03;;;;;;;26.09;45.18;94664.50;6102492;28;104250;-58
2022/08/20 03:31:06;;;;;;;10.00;9.20;;;;;;;26.15;44.90;94660.44;6121481;28;103215;-58
2022/08/20 03:34:09;;;;;;;10.60;9.50;;;;;;;26.12;44.80;94661.13;6111651;28;104122;-58
2022/08/20 03:37:12;;;;;;;9.53;8.80;;;;;;;26.12;44.58;94671.06;6114203;28;103177;-58
2022/08/20 03:40:19;;;;;;;10.40;9.43;;;;;;;26.08;44.86;94662.16;6101949;28;105096;-58
2022/08/20 03:43:22;;;;;;;12.30;11.23;;;;;;;26.12;44.82;94661.13;6112843;28;103084;-59
2022/08/20 03:46:27;;;;;;;10.70;9.80;;;;;;;26.06;45.32;94667.09;6113029;28;103314;-58
2022/08/20 03:49:30;;;;;;;10.43;9.43;;;;;;;25.87;45.89;94673.00;6114008;28;103275;-58
2022/08/20 03:52:35;;;;;;;11.00;10.03;;;;;;;25.78;45.80;94683.88;6102330;28;103942;-58
2022/08/20 03:55:39;;;;;;;11.73;10.17;;;;;;;25.88;45.77;94677.28;6112953;28;103157;-58
2022/08/20 03:58:42;;;;;;;10.27;9.37;;;;;;;25.92;45.46;94678.16;6112648;28;103610;-58
2022/08/20 04:01:47;;;;;;;10.40;9.40;;;;;;;25.93;45.58;94675.13;6106021;28;104405;-57
2022/08/20 04:04:50;;;;;;;10.87;9.80;;;;;;;25.94;45.27;94675.91;6108904;28;102954;-58
2022/08/20 04:07:53;;;;;;;10.50;9.50;;;;;;;25.94;45.77;94675.91;6100678;28;103980;-58
2022/08/20 04:10:59;;;;;;;10.70;9.60;;;;;;;26.13;45.10;94680.69;6110763;28;103096;-56
2022/08/20 04:14:02;;;;;;;10.60;9.80;;;;;;;26.22;44.66;94676.75;6101073;28;103924;-57
2022/08/20 04:17:11;;;;;;;9.80;9.10;;;;;;;26.27;44.88;94673.81;6110522;28;104358;-58
2022/08/20 04:20:17;;;;;;;11.13;10.27;;;;;;;26.32;44.77;94685.41;6113252;28;103271;-58
2022/08/20 04:23:22;;;;;;;11.53;10.33;;;;;;;26.32;44.68;94680.06;6111738;28;103153;-58
2022/08/20 04:26:25;;;;;;;11.30;10.27;;;;;;;26.35;44.49;94682.81;6102470;28;104097;-58
2022/08/20 04:29:29;;;;;;;21.83;20.23;;;;;;;26.21;45.58;94687.78;6112252;28;104319;-57
2022/08/20 04:32:35;;;;;;;15.77;14.27;;;;;;;26.21;45.59;94677.06;6111631;28;103030;-56
2022/08/20 04:35:40;;;;;;;29.23;26.53;;;;;;;26.23;45.88;94683.69;6104675;28;103089;-58
2022/08/20 04:38:43;;;;;;;26.10;23.80;;;;;;;26.20;46.16;94681.66;6106967;28;103120;-58
2022/08/20 04:41:52;;;;;;;22.67;20.70;;;;;;;26.18;46.47;94681.22;6109640;28;103299;-56
2022/08/20 04:44:56;;;;;;;17.53;16.03;;;;;;;26.18;46.12;94681.22;6111205;28;103243;-58
2022/08/20 04:48:04;;;;;;;29.20;26.37;;;;;;;26.15;46.28;94678.44;6100184;28;103713;-58
2022/08/20 04:51:08;;;;;;;15.57;13.90;;;;;;;26.12;46.25;94687.16;6105096;28;104247;-58
2022/08/20 04:54:13;;;;;;;12.43;11.20;;;;;;;26.09;45.69;94680.59;6108623;28;104080;-54
2022/08/20 04:57:16;;;;;;;13.27;12.10;;;;;;;26.08;46.56;94686.28;6109374;28;103228;-55
2022/08/20 05:00:19;;;;;;;12.03;10.87;;;;;;;26.13;46.67;94684.16;6099107;28;103708;-53
2022/08/20 05:03:24;;;;;;;12.57;11.37;;;;;;;26.17;46.17;94686.91;6109076;28;103104;-55
2022/08/20 05:06:29;;;;;;;14.83;12.93;;;;;;;26.31;45.92;94692.69;6109477;28;103044;-56
2022/08/20 05:09:32;;;;;;;12.10;10.83;;;;;;;26.24;46.01;94682.56;6108029;28;103463;-56
2022/08/20 05:12:46;;;;;;;16.73;15.20;;;;;;;26.23;46.20;94689.03;6106251;28;104035;-55
2022/08/20 05:16:03;;;;;;;17.90;16.27;;;;;;;26.44;46.82;94683.47;6112884;28;104335;-56
2022/08/20 05:19:10;;;;;;;19.63;18.13;;;;;;;26.52;46.12;94687.13;6110648;28;103062;-55
2022/08/20 05:22:13;;;;;;;18.03;16.40;;;;;;;26.49;46.30;94691.28;6091059;28;103407;-55
2022/08/20 05:25:16;;;;;;;18.00;16.40;;;;;;;26.47;46.40;94690.84;6111924;28;103006;-56
2022/08/20 05:28:22;;;;;;;20.37;13.50;;;;;;;26.44;46.74;94683.47;6111111;28;103231;-55
2022/08/20 05:31:25;;;;;;;18.00;12.90;;;;;;;26.47;46.09;94679.31;6111499;28;104149;-55
2022/08/20 05:34:36;;;;;;;13.83;12.63;;;;;;;26.44;46.55;94666.59;6100037;28;104236;-55
2022/08/20 05:37:40;;;;;;;21.83;19.53;;;;;;;26.47;46.33;94673.94;6111406;28;103095;-54
2022/08/20 05:40:45;;;;;;;15.87;12.13;;;;;;;26.45;47.20;94663.56;6111830;28;103092;-55
2022/08/20 05:43:48;;;;;;;13.20;11.60;;;;;;;26.51;46.81;94674.81;6104331;28;103949;-55
2022/08/20 05:46:53;;;;;;;17.73;11.63;;;;;;;26.55;46.62;94673.03;6103260;28;104928;-55
2022/08/20 05:49:57;;;;;;;12.30;11.10;;;;;;;26.54;46.69;94664.19;6108590;28;103383;-54
2022/08/20 05:53:01;;;;;;;13.20;11.50;;;;;;;26.48;46.66;94662.09;6110159;28;103034;-54
2022/08/20 05:56:04;;;;;;;13.70;11.03;;;;;;;26.49;46.82;94664.44;6099993;28;104299;-55
2022/08/20 05:59:09;;;;;;;11.50;10.70;;;;;;;26.53;46.95;94659.16;6111080;28;103434;-55
2022/08/20 06:05:30;;;;;;;12.20;11.07;;;;;;;26.55;46.74;94662.31;6110123;28;107264;-54
2022/08/20 06:08:33;;;;;;;11.30;10.30;;;;;;;26.64;46.41;94660.25;6101072;28;104344;-55
2022/08/20 06:11:37;;;;;;;11.97;10.77;;;;;;;26.73;46.33;94652.81;6111318;28;104183;-55
2022/08/20 06:14:40;;;;;;;12.93;11.53;;;;;;;26.79;46.91;94650.66;6111315;28;103410;-55
2022/08/20 06:17:43;;;;;;;19.77;12.80;;;;;;;26.99;47.44;94659.59;6105041;28;103604;-54
2022/08/20 06:21:01;;;;;;;13.33;11.97;;;;;;;27.05;47.22;94664.38;6083453;28;104138;-56
2022/08/20 06:24:05;;;;;;;15.07;13.47;;;;;;;27.03;47.99;94663.13;6101277;28;103064;-55
2022/08/20 06:27:08;;;;;;;16.53;13.00;;;;;;;26.90;46.53;94665.13;6110454;28;103018;-53
2022/08/20 06:30:14;;;;;;;12.27;11.30;;;;;;;26.89;47.44;94662.81;6096575;28;103327;-54
2022/08/20 06:33:18;;;;;;;17.80;11.10;;;;;;;26.71;46.67;94668.47;6100530;28;104110;-53
2022/08/20 06:36:22;;;;;;;12.30;11.07;;;;;;;26.65;46.63;94667.19;6109663;28;103317;-53
2022/08/20 06:39:27;;;;;;;12.87;11.37;;;;;;;26.70;47.25;94672.28;6110631;28;103405;-54
2022/08/20 06:42:30;;;;;;;12.23;11.00;;;;;;;26.91;47.68;94666.69;6099352;28;104217;-54
2022/08/20 06:45:34;;;;;;;15.23;13.67;;;;;;;27.08;48.45;94668.25;6111521;28;103019;-54
2022/08/20 06:48:38;;;;;;;14.17;12.90;;;;;;;27.21;49.42;94666.25;6110306;28;103038;-55
2022/08/20 06:51:42;;;;;;;14.57;13.07;;;;;;;27.17;49.00;94660.78;6104889;28;104028;-53
2022/08/20 06:54:46;;;;;;;13.70;12.60;;;;;;;27.22;49.05;94657.06;6096272;28;103848;-53
2022/08/20 06:57:56;;;;;;;16.10;14.50;;;;;;;26.91;49.63;94657.88;6110011;28;102998;-53
2022/08/20 07:01:00;;;;;;;17.20;15.67;;;;;;;26.64;49.78;94660.25;6112262;28;103403;-54
2022/08/20 07:04:11;;;;;;;15.97;14.33;;;;;;;26.56;50.00;94650.44;6098483;28;103417;-53
2022/08/20 07:07:19;;;;;;;13.53;12.33;;;;;;;26.47;48.25;94649.81;6114577;28;103294;-54
2022/08/20 07:10:24;;;;;;;14.13;12.77;;;;;;;26.38;47.83;94649.97;6114792;28;103243;-54
2022/08/20 07:13:27;;;;;;;15.23;13.80;;;;;;;26.28;47.48;94645.09;6113975;28;104503;-54
2022/08/20 07:16:31;;;;;;;13.90;12.77;;;;;;;26.08;46.19;94638.81;6102212;28;103099;-54
2022/08/20 07:19:36;;;;;;;14.07;12.97;;;;;;;25.97;45.31;94633.09;6114713;28;104249;-54
2022/08/20 07:22:41;;;;;;;16.80;15.20;;;;;;;25.92;44.52;94633.34;6114142;28;104039;-54
2022/08/20 07:25:45;;;;;;;16.60;15.10;;;;;;;25.90;43.59;94638.28;6107834;28;103373;-61
2022/08/20 07:28:48;;;;;;;18.53;16.93;;;;;;;25.88;44.03;94634.38;6109588;28;103148;-60
2022/08/20 07:35:13;;;;;;;18.57;17.10;;;;;;;25.78;45.47;94627.56;6115086;28;103957;-57
2022/08/20 07:38:23;;;;;;;20.57;18.87;;;;;;;25.76;43.73;94626.34;6101011;28;104752;-57
2022/08/20 07:41:26;;;;;;;22.00;19.70;;;;;;;25.82;44.04;94625.00;6112235;28;103167;-57
2022/08/20 07:44:29;;;;;;;19.70;17.83;;;;;;;25.81;43.70;94618.06;6110704;28;103477;-57
2022/08/20 07:47:34;;;;;;;19.97;18.23;;;;;;;25.82;43.51;94623.09;6112023;28;103125;-58
2022/08/20 07:50:38;;;;;;;20.20;18.40;;;;;;;25.68;43.04;94623.44;6102827;28;104253;-57
2022/08/20 07:53:43;;;;;;;19.00;17.30;;;;;;;25.67;42.65;94623.78;6112667;28;103049;-57
2022/08/20 07:56:47;;;;;;;18.40;16.77;;;;;;;25.72;43.13;94622.81;6107783;28;104047;-58
2022/08/20 07:59:51;;;;;;;19.83;17.93;;;;;;;25.80;43.45;94619.97;6099130;28;104015;-57
2022/08/20 08:02:54;;;;;;;18.33;16.63;;;;;;;25.76;44.81;94621.00;6081898;28;103240;-58
2022/08/20 08:05:58;;;;;;;21.60;19.70;;;;;;;25.91;44.01;94618.38;6112109;28;104157;-57
2022/08/20 08:09:05;;;;;;;23.00;20.77;;;;;;;25.88;43.68;94618.28;6111548;28;103403;-56
2022/08/20 08:12:08;;;;;;;24.60;22.70;;;;;;;25.96;43.01;94615.44;6103495;28;103213;-56
2022/08/20 08:15:16;;;;;;;26.17;23.87;;;;;;;26.05;42.86;94623.41;6113662;28;104219;-56
2022/08/20 08:18:23;;;;;;;26.27;24.07;;;;;;;26.02;43.02;94618.69;6113408;28;103223;-57
2022/08/20 08:21:32;;;;;;;28.97;26.57;;;;;;;25.87;43.42;94608.66;6110990;28;104055;-56
2022/08/20 08:24:36;;;;;;;28.67;26.27;;;;;;;25.78;43.44;94618.75;6101885;28;104352;-57
2022/08/20 08:27:39;;;;;;;29.53;27.13;;;;;;;25.79;43.48;94604.22;6113282;28;104262;-57
2022/08/20 08:30:44;;;;;;;31.90;29.20;;;;;;;25.73;43.62;94603.69;6111363;28;103192;-56
2022/08/20 08:33:47;;;;;;;30.33;27.53;;;;;;;25.76;44.25;94599.56;6106135;28;103160;-57
2022/08/20 08:36:51;;;;;;;29.77;27.33;;;;;;;25.73;44.21;94602.91;6107810;28;104318;-57
2022/08/20 08:39:55;;;;;;;33.93;31.13;;;;;;;25.80;44.48;94595.84;6113233;28;103312;-57
2022/08/20 08:43:02;;;;;;;35.60;32.30;;;;;;;25.93;43.83;94599.28;6112379;28;103992;-55
2022/08/20 08:46:09;;;;;;;40.20;36.83;;;;;;;25.89;44.24;94587.69;6101714;28;104113;-56
2022/08/20 08:49:16;;;;;;;43.57;40.00;;;;;;;25.84;43.81;94587.91;6113647;28;104035;-57
2022/08/20 08:52:22;;;;;;;57.30;51.40;;;;;;;25.80;44.20;94578.97;6112903;28;103101;-58
2022/08/20 08:55:29;;;;;;;68.10;60.00;;;;;;;25.75;43.85;94579.22;6110732;28;104075;-58
2022/08/20 08:58:34;;;;;;;77.80;66.10;;;;;;;25.84;43.58;94577.19;6102747;28;104063;-57
2022/08/20 09:01:44;;;;;;;126.60;94.67;;;;;;;25.82;43.58;94574.06;6103460;28;104125;-57
2022/08/20 09:05:00;;;;;;;252.80;170.33;;;;;;;25.90;43.18;94562.44;6110714;28;104162;-57
2022/08/20 09:08:05;;;;;;;401.23;251.90;;;;;;;25.87;43.32;94560.41;6108678;28;103929;-57
2022/08/20 09:11:10;;;;;;;368.80;227.00;;;;;;;25.85;43.46;94551.94;6106999;28;103166;-56
2022/08/20 09:14:13;;;;;;;300.30;185.27;;;;;;;25.72;43.59;94555.78;6110623;28;103288;-58
2022/08/20 09:17:17;;;;;;;287.83;170.60;;;;;;;25.76;43.06;94562.03;6112527;28;103394;-58
2022/08/20 09:20:21;;;;;;;248.87;155.27;;;;;;;25.77;42.92;94564.38;6101783;28;103165;-58
2022/08/20 09:23:28;;;;;;;214.87;138.10;;;;;;;25.79;42.93;94562.13;6109921;28;103455;-58
2022/08/20 09:26:33;;;;;;;193.67;128.37;;;;;;;25.84;43.24;94559.19;6111259;28;103359;-58
2022/08/20 09:29:41;;;;;;;380.40;136.67;;;;;;;25.75;42.68;94561.25;6112294;28;103034;-57
2022/08/20 09:32:45;;;;;;;339.23;121.77;;;;;;;25.79;43.81;94561.34;6089279;28;103819;-57
2022/08/20 09:35:48;;;;;;;283.67;115.30;;;;;;;25.89;43.16;94552.81;6110051;28;103214;-55
2022/08/20 09:38:51;;;;;;;255.17;102.23;;;;;;;25.87;43.45;94552.34;6111534;28;103561;-56
2022/08/20 09:41:56;;;;;;;201.30;97.33;;;;;;;25.90;43.49;94538.28;6107660;28;104305;-56
2022/08/20 09:45:00;;;;;;;168.70;77.50;;;;;;;25.91;43.74;94546.00;6107145;28;103741;-57
2022/08/20 09:48:03;;;;;;;162.47;68.40;;;;;;;25.89;44.44;94542.09;6112734;28;104280;-56
2022/08/20 09:51:12;;;;;;;19.30;16.10;;;;;;;26.58;44.80;94538.94;6111125;28;104128;-56
2022/08/20 09:54:15;;;;;;;86.63;30.90;;;;;;;26.22;44.18;94534.59;6100465;28;103347;-57
2022/08/20 09:57:20;;;;;;;227.60;49.10;;;;;;;26.04;43.92;94536.00;6111404;28;103384;-57
2022/08/20 10:00:23;;;;;;;201.00;48.27;;;;;;;25.86;44.17;94530.13;6110797;28;103171;-56
2022/08/20 10:03:26;;;;;;;143.53;42.73;;;;;;;25.92;44.49;94531.47;6109485;28;103099;-58
2022/08/20 10:06:29;;;;;;;111.13;40.00;;;;;;;26.02;44.07;94537.47;6101338;28;104317;-60
2022/08/20 10:09:39;;;;;;;103.27;39.10;;;;;;;26.01;44.39;94535.91;6108224;28;103045;-59
2022/08/20 10:12:44;;;;;;;85.83;36.03;;;;;;;26.05;43.87;94526.06;6111260;28;102870;-58
2022/08/20 10:15:47;;;;;;;82.50;32.37;;;;;;;26.01;43.84;94534.00;6108886;28;103406;-54
2022/08/20 10:18:51;;;;;;;153.47;39.00;;;;;;;25.95;43.64;94532.69;6104915;28;106516;-56
2022/08/20 10:21:54;;;;;;;187.60;39.90;;;;;;;25.94;44.08;94531.13;6112222;28;103096;-55
2022/08/20 10:24:58;;;;;;;156.53;37.30;;;;;;;25.94;43.69;94528.44;6109050;28;103114;-55
2022/08/20 10:28:02;;;;;;;98.47;30.40;;;;;;;25.95;43.68;94527.31;6087699;28;104225;-55
2022/08/20 10:31:06;;;;;;;91.80;30.00;;;;;;;25.90;44.00;94522.22;6109585;28;104279;-56
2022/08/20 10:34:10;;;;;;;68.90;25.97;;;;;;;25.90;44.07;94514.16;6116130;28;104065;-57
2022/08/20 10:37:15;;;;;;;57.60;25.23;;;;;;;25.92;43.91;94509.25;6114121;28;104255;-56
2022/08/20 10:40:18;;;;;;;52.50;24.10;;;;;;;25.89;44.61;94504.56;6103239;28;104071;-57
2022/08/20 10:43:23;;;;;;;34.07;22.60;;;;;;;25.86;44.77;94503.31;6115608;28;103702;-59
2022/08/20 10:46:26;;;;;;;39.50;21.27;;;;;;;25.85;44.79;94517.06;6114900;28;103193;-58
2022/08/20 10:49:34;;;;;;;34.53;19.07;;;;;;;25.84;45.07;94504.78;6115716;28;103911;-59
2022/08/20 10:52:37;;;;;;;43.13;21.73;;;;;;;25.77;45.32;94489.31;6103014;28;103315;-57
2022/08/20 10:55:40;;;;;;;36.43;21.00;;;;;;;25.68;46.26;94494.03;6114639;28;103177;-58
2022/08/20 10:58:45;;;;;;;32.77;18.87;;;;;;;25.73;47.05;94493.03;6113780;28;104668;-57
2022/08/20 11:01:48;;;;;;;29.20;19.40;;;;;;;25.65;47.18;94490.13;6095157;28;104071;-58
2022/08/20 11:04:52;;;;;;;31.33;18.90;;;;;;;25.63;46.14;94484.34;6108575;28;104356;-58
2022/08/20 11:07:56;;;;;;;25.20;17.03;;;;;;;25.46;45.86;94486.53;6113243;28;102777;-59
2022/08/20 11:10:59;;;;;;;28.17;16.87;;;;;;;25.48;46.14;94485.06;6114676;28;104591;-58
2022/08/20 11:14:04;;;;;;;22.40;17.50;;;;;;;25.28;46.14;94488.69;6101236;28;103352;-58
2022/08/20 11:17:08;;;;;;;19.87;16.50;;;;;;;25.48;45.50;94486.97;6113772;28;104104;-57
2022/08/20 11:20:12;;;;;;;18.50;16.17;;;;;;;25.43;45.57;94489.91;6112150;28;103761;-58
2022/08/20 11:23:15;;;;;;;19.43;15.53;;;;;;;25.42;45.52;94481.09;6114515;28;103121;-58
2022/08/20 11:26:22;;;;;;;20.00;15.63;;;;;;;25.44;45.17;94473.50;6106195;28;104244;-58
2022/08/20 11:29:26;;;;;;;17.30;15.70;;;;;;;25.40;45.05;94464.59;6105164;28;103245;-58
2022/08/20 11:32:35;;;;;;;18.67;16.33;;;;;;;25.35;44.84;94462.13;6111618;28;103542;-58
2022/08/20 11:35:38;;;;;;;17.73;16.10;;;;;;;25.36;44.38;94444.94;6109427;28;103288;-57
2022/08/20 11:38:50;;;;;;;20.43;15.70;;;;;;;25.31;44.74;94445.16;6106598;28;104160;-57
2022/08/20 11:41:53;;;;;;;19.33;15.93;;;;;;;25.29;44.17;94436.69;6112504;28;103201;-57
2022/08/20 11:44:58;;;;;;;18.13;16.53;;;;;;;25.30;44.57;94438.25;6104574;28;104477;-58
2022/08/20 11:48:01;;;;;;;16.30;14.80;;;;;;;25.23;45.08;94430.03;6104086;28;103130;-58
2022/08/20 11:51:04;;;;;;;17.60;15.17;;;;;;;25.30;44.60;94438.25;6113586;28;103318;-57
2022/08/20 11:54:08;;;;;;;16.77;15.10;;;;;;;25.33;44.12;94432.97;6113630;28;104037;-57
2022/08/20 11:57:13;;;;;;;17.67;14.67;;;;;;;25.24;44.78;94434.25;6114433;28;104253;-57
2022/08/20 12:00:22;;;;;;;22.53;16.13;;;;;;;25.38;45.03;94440.81;6100278;28;103104;-58
2022/08/20 12:03:35;;;;;;;18.67;15.23;;;;;;;25.39;45.37;94438.91;6112330;28;103034;-58
2022/08/20 12:06:38;;;;;;;15.93;14.53;;;;;;;25.41;44.34;94436.69;6109388;28;103565;-56
2022/08/20 12:09:42;;;;;;;17.53;14.20;;;;;;;25.29;44.38;94428.66;6103961;28;103654;-56
2022/08/20 12:12:53;;;;;;;21.67;15.07;;;;;;;25.35;44.06;94430.75;6106263;28;103015;-57
2022/08/20 12:15:58;;;;;;;21.00;14.43;;;;;;;25.45;43.90;94429.50;6111361;28;103302;-55
2022/08/20 12:19:01;;;;;;;16.70;13.73;;;;;;;25.38;43.63;94434.69;6113277;28;103058;-56
2022/08/20 12:22:04;;;;;;;14.93;13.40;;;;;;;25.44;43.50;94437.88;6099336;28;104128;-57
2022/08/20 12:25:27;;;;;;;16.80;15.20;;;;;;;25.32;43.79;94444.81;6113143;28;103166;-57
2022/08/20 12:28:30;;;;;;;15.90;14.20;;;;;;;25.37;43.43;94449.16;6111421;28;102924;-57
2022/08/20 12:31:35;;;;;;;16.73;14.60;;;;;;;25.34;43.27;94461.31;6109993;28;104181;-57
2022/08/20 12:34:41;;;;;;;25.93;15.67;;;;;;;25.45;43.27;94467.00;6102234;28;104208;-57
2022/08/20 12:37:45;;;;;;;16.03;13.97;;;;;;;25.37;42.97;94482.13;6111053;28;103115;-61
2022/08/20 12:40:49;;;;;;;15.87;14.20;;;;;;;25.35;43.05;94495.03;6109186;28;103069;-58
2022/08/20 12:43:52;;;;;;;17.50;13.63;;;;;;;25.34;43.20;94508.75;6108540;28;104195;-58
2022/08/20 12:47:07;;;;;;;16.07;14.03;;;;;;;25.30;42.64;94511.34;6107943;28;105526;-58
2022/08/20 12:50:12;;;;;;;15.70;14.10;;;;;;;25.36;42.49;94510.00;6113306;28;103229;-58
2022/08/20 12:53:15;;;;;;;15.13;13.57;;;;;;;25.36;41.80;94504.66;6113443;28;103184;-57
2022/08/20 12:56:19;;;;;;;16.20;14.30;;;;;;;25.46;41.62;94479.28;6102954;28;104900;-58
2022/08/20 12:59:22;;;;;;;16.47;14.87;;;;;;;25.51;41.29;94471.00;6112101;28;105111;-59
2022/08/20 13:02:29;;;;;;;15.10;13.50;;;;;;;25.38;41.66;94443.50;6112806;28;104166;-59
2022/08/20 13:05:34;;;;;;;17.50;13.57;;;;;;;25.34;41.08;94447.16;6112740;28;104097;-58
2022/08/20 13:08:37;;;;;;;15.57;14.07;;;;;;;25.24;40.85;94439.63;6102395;28;104007;-59
2022/08/20 13:11:40;;;;;;;15.50;14.10;;;;;;;25.12;41.12;94440.44;6110660;28;103588;-58
2022/08/20 13:14:43;;;;;;;14.97;13.70;;;;;;;25.08;40.44;94426.94;6086594;28;103514;-58
2022/08/20 13:17:52;;;;;;;15.77;14.17;;;;;;;25.11;40.52;94416.66;6100827;28;104491;-58
2022/08/20 13:20:55;;;;;;;15.10;13.50;;;;;;;25.00;40.53;94424.38;6106087;28;103009;-58
2022/08/20 13:23:58;;;;;;;16.70;15.27;;;;;;;25.01;40.90;94428.63;6111579;28;103285;-58
2022/08/20 13:27:06;;;;;;;16.13;14.40;;;;;;;24.98;42.06;94440.78;6111925;28;103288;-58
2022/08/20 13:30:12;;;;;;;16.90;15.03;;;;;;;25.04;43.33;94452.84;6101204;28;104469;-58
2022/08/20 13:33:17;;;;;;;23.27;15.87;;;;;;;24.99;46.20;94449.59;6111970;28;104097;-59
2022/08/20 13:36:20;;;;;;;19.37;15.70;;;;;;;25.11;45.64;94468.31;6107048;28;104260;-57
2022/08/20 13:39:24;;;;;;;21.37;15.80;;;;;;;25.12;45.97;94490.53;6109176;28;103025;-58
2022/08/20 13:42:27;;;;;;;25.17;14.93;;;;;;;25.15;46.07;94495.19;6100150;28;103027;-58
2022/08/20 13:45:30;;;;;;;26.33;16.40;;;;;;;25.07;46.06;94489.66;6111286;28;103197;-58
2022/08/20 13:48:35;;;;;;;21.93;16.17;;;;;;;25.11;46.09;94483.59;6110855;28;103976;-59
2022/08/20 13:51:38;;;;;;;20.53;16.57;;;;;;;25.14;46.00;94493.63;6105278;28;103114;-58
2022/08/20 13:54:42;;;;;;;26.97;16.80;;;;;;;25.18;45.77;94497.19;6103133;28;103190;-58
2022/08/20 13:57:46;;;;;;;22.50;17.33;;;;;;;25.17;45.72;94509.03;6110565;28;103172;-58
2022/08/20 14:00:50;;;;;;;21.63;18.30;;;;;;;25.13;45.49;94546.41;6104060;28;103552;-59
2022/08/20 14:03:54;;;;;;;21.90;19.57;;;;;;;25.03;46.64;94557.56;6101878;28;104288;-57
2022/08/20 14:06:57;;;;;;;17.03;15.40;;;;;;;25.64;52.71;94581.59;6103261;28;103314;-57